sensor_id;sensor_type;location;lat;lon;timestamp;P1;durP1;ratioP1;P2;durP2;ratioP2
7719;SDS011;3902;49.474;8.616;2023-05-01T00:02:00;1.50;;;1.40;;
7719;SDS011;3902;49.474;8.616;2023-05-01T00:04:26;1.93;;;1.60;;
7719;SDS011;3902;49.474;8.616;2023-05-01T00:06:51;1.70;;;1.60;;
7719;SDS011;3902;49.474;8.616;2023-05-01T00:09:17;1.70;;;1.60;;
7719;SDS011;3902;49.474;8.616;2023-05-01T00:11:43;2.90;;;1.97;;
7719;SDS011;3902;49.474;8.616;2023-05-01T00:14:09;1.70;;;1.60;;
7719;SDS011;3902;49.474;8.616;2023-05-01T00:16:35;1.97;;;1.80;;
7719;SDS011;3902;49.474;8.616;2023-05-01T00:19:01;1.60;;;1.50;;
7719;SDS011;3902;49.474;8.616;2023-05-01T00:21:28;2.40;;;1.57;;
7719;SDS011;3902;49.474;8.616;2023-05-01T00:23:54;2.33;;;1.60;;
7719;SDS011;3902;49.474;8.616;2023-05-01T00:26:20;2.13;;;1.53;;
7719;SDS011;3902;49.474;8.616;2023-05-01T00:28:46;2.50;;;2.30;;
7719;SDS011;3902;49.474;8.616;2023-05-01T00:31:11;1.83;;;1.60;;
7719;SDS011;3902;49.474;8.616;2023-05-01T00:33:37;2.33;;;1.70;;
7719;SDS011;3902;49.474;8.616;2023-05-01T00:36:02;1.67;;;1.57;;
7719;SDS011;3902;49.474;8.616;2023-05-01T00:38:28;2.83;;;1.93;;
7719;SDS011;3902;49.474;8.616;2023-05-01T00:40:53;1.50;;;1.40;;
7719;SDS011;3902;49.474;8.616;2023-05-01T00:43:19;1.60;;;1.50;;
7719;SDS011;3902;49.474;8.616;2023-05-01T00:45:45;1.67;;;1.57;;
7719;SDS011;3902;49.474;8.616;2023-05-01T00:48:10;1.90;;;1.60;;
7719;SDS011;3902;49.474;8.616;2023-05-01T00:50:36;1.90;;;1.50;;
7719;SDS011;3902;49.474;8.616;2023-05-01T00:53:02;1.70;;;1.60;;
7719;SDS011;3902;49.474;8.616;2023-05-01T00:55:28;1.87;;;1.77;;
7719;SDS011;3902;49.474;8.616;2023-05-01T00:57:55;1.93;;;1.73;;
7719;SDS011;3902;49.474;8.616;2023-05-01T01:00:21;2.47;;;1.70;;
7719;SDS011;3902;49.474;8.616;2023-05-01T01:02:48;1.80;;;1.70;;
7719;SDS011;3902;49.474;8.616;2023-05-01T01:05:14;1.70;;;1.60;;
7719;SDS011;3902;49.474;8.616;2023-05-01T01:07:41;1.93;;;1.73;;
7719;SDS011;3902;49.474;8.616;2023-05-01T01:11:16;1.77;;;1.67;;
7719;SDS011;3902;49.474;8.616;2023-05-01T01:13:32;2.20;;;1.80;;
7719;SDS011;3902;49.474;8.616;2023-05-01T01:19:04;2.20;;;2.00;;
7719;SDS011;3902;49.474;8.616;2023-05-01T01:21:52;1.67;;;1.57;;
7719;SDS011;3902;49.474;8.616;2023-05-01T01:24:41;1.63;;;1.53;;
7719;SDS011;3902;49.474;8.616;2023-05-01T01:27:38;1.63;;;1.53;;
7719;SDS011;3902;49.474;8.616;2023-05-01T01:30:26;2.00;;;1.80;;
7719;SDS011;3902;49.474;8.616;2023-05-01T01:36:01;1.60;;;1.50;;
7719;SDS011;3902;49.474;8.616;2023-05-01T01:38:35;4.30;;;2.20;;
7719;SDS011;3902;49.474;8.616;2023-05-01T01:41:07;1.90;;;1.60;;
7719;SDS011;3902;49.474;8.616;2023-05-01T01:43:38;1.80;;;1.60;;
7719;SDS011;3902;49.474;8.616;2023-05-01T01:46:07;1.77;;;1.67;;
7719;SDS011;3902;49.474;8.616;2023-05-01T01:48:37;2.73;;;2.10;;
7719;SDS011;3902;49.474;8.616;2023-05-01T01:51:10;2.23;;;2.03;;
7719;SDS011;3902;49.474;8.616;2023-05-01T01:53:40;2.20;;;1.90;;
7719;SDS011;3902;49.474;8.616;2023-05-01T01:56:10;3.20;;;2.00;;
7719;SDS011;3902;49.474;8.616;2023-05-01T01:58:38;1.87;;;1.77;;
7719;SDS011;3902;49.474;8.616;2023-05-01T02:01:05;2.33;;;2.00;;
7719;SDS011;3902;49.474;8.616;2023-05-01T02:03:31;2.53;;;2.00;;
7719;SDS011;3902;49.474;8.616;2023-05-01T02:05:58;2.10;;;1.93;;
7719;SDS011;3902;49.474;8.616;2023-05-01T02:08:26;2.97;;;2.13;;
7719;SDS011;3902;49.474;8.616;2023-05-01T02:10:54;1.90;;;1.80;;
7719;SDS011;3902;49.474;8.616;2023-05-01T02:13:23;2.10;;;1.90;;
7719;SDS011;3902;49.474;8.616;2023-05-01T02:15:52;2.30;;;1.97;;
7719;SDS011;3902;49.474;8.616;2023-05-01T02:18:21;1.80;;;1.70;;
7719;SDS011;3902;49.474;8.616;2023-05-01T02:20:47;2.50;;;2.00;;
7719;SDS011;3902;49.474;8.616;2023-05-01T02:23:14;1.90;;;1.80;;
7719;SDS011;3902;49.474;8.616;2023-05-01T02:25:41;2.77;;;2.50;;
7719;SDS011;3902;49.474;8.616;2023-05-01T02:28:09;2.03;;;1.90;;
7719;SDS011;3902;49.474;8.616;2023-05-01T02:30:37;1.80;;;1.70;;
7719;SDS011;3902;49.474;8.616;2023-05-01T02:33:03;1.70;;;1.60;;
7719;SDS011;3902;49.474;8.616;2023-05-01T02:35:38;3.53;;;1.90;;
7719;SDS011;3902;49.474;8.616;2023-05-01T02:38:04;2.57;;;1.90;;
7719;SDS011;3902;49.474;8.616;2023-05-01T02:40:30;2.53;;;1.90;;
7719;SDS011;3902;49.474;8.616;2023-05-01T02:42:56;3.07;;;2.00;;
7719;SDS011;3902;49.474;8.616;2023-05-01T02:45:24;2.00;;;1.70;;
7719;SDS011;3902;49.474;8.616;2023-05-01T02:47:51;6.10;;;2.20;;
7719;SDS011;3902;49.474;8.616;2023-05-01T02:50:20;1.73;;;1.63;;
7719;SDS011;3902;49.474;8.616;2023-05-01T02:52:47;2.27;;;2.17;;
7719;SDS011;3902;49.474;8.616;2023-05-01T02:55:13;2.13;;;1.93;;
7719;SDS011;3902;49.474;8.616;2023-05-01T02:57:40;1.93;;;1.83;;
7719;SDS011;3902;49.474;8.616;2023-05-01T03:00:06;2.27;;;2.07;;
7719;SDS011;3902;49.474;8.616;2023-05-01T03:02:33;2.17;;;1.80;;
7719;SDS011;3902;49.474;8.616;2023-05-01T03:04:58;2.13;;;1.73;;
7719;SDS011;3902;49.474;8.616;2023-05-01T03:07:24;2.47;;;1.73;;
7719;SDS011;3902;49.474;8.616;2023-05-01T03:09:49;2.13;;;1.93;;
7719;SDS011;3902;49.474;8.616;2023-05-01T03:12:15;2.10;;;2.00;;
7719;SDS011;3902;49.474;8.616;2023-05-01T03:14:41;2.23;;;2.03;;
7719;SDS011;3902;49.474;8.616;2023-05-01T03:17:06;2.27;;;2.07;;
7719;SDS011;3902;49.474;8.616;2023-05-01T03:19:32;1.83;;;1.73;;
7719;SDS011;3902;49.474;8.616;2023-05-01T03:21:58;2.23;;;1.87;;
7719;SDS011;3902;49.474;8.616;2023-05-01T03:24:24;2.83;;;2.20;;
7719;SDS011;3902;49.474;8.616;2023-05-01T03:26:49;2.50;;;2.30;;
7719;SDS011;3902;49.474;8.616;2023-05-01T03:29:15;2.60;;;2.10;;
7719;SDS011;3902;49.474;8.616;2023-05-01T03:31:40;2.13;;;1.93;;
7719;SDS011;3902;49.474;8.616;2023-05-01T03:34:06;1.80;;;1.70;;
7719;SDS011;3902;49.474;8.616;2023-05-01T03:36:31;2.03;;;1.90;;
7719;SDS011;3902;49.474;8.616;2023-05-01T03:38:57;2.47;;;2.27;;
7719;SDS011;3902;49.474;8.616;2023-05-01T03:41:23;3.17;;;2.10;;
7719;SDS011;3902;49.474;8.616;2023-05-01T03:43:49;1.93;;;1.83;;
7719;SDS011;3902;49.474;8.616;2023-05-01T03:46:14;2.17;;;1.90;;
7719;SDS011;3902;49.474;8.616;2023-05-01T03:48:40;1.93;;;1.80;;
7719;SDS011;3902;49.474;8.616;2023-05-01T03:51:05;3.53;;;1.90;;
7719;SDS011;3902;49.474;8.616;2023-05-01T03:53:31;2.80;;;2.47;;
7719;SDS011;3902;49.474;8.616;2023-05-01T03:55:56;2.50;;;2.30;;
7719;SDS011;3902;49.474;8.616;2023-05-01T03:58:22;3.07;;;2.30;;
7719;SDS011;3902;49.474;8.616;2023-05-01T04:00:48;2.03;;;1.93;;
7719;SDS011;3902;49.474;8.616;2023-05-01T04:03:14;3.03;;;2.50;;
7719;SDS011;3902;49.474;8.616;2023-05-01T04:05:40;3.00;;;2.70;;
7719;SDS011;3902;49.474;8.616;2023-05-01T04:08:05;2.10;;;1.90;;
7719;SDS011;3902;49.474;8.616;2023-05-01T04:10:31;2.03;;;1.83;;
7719;SDS011;3902;49.474;8.616;2023-05-01T04:12:57;2.17;;;2.00;;
7719;SDS011;3902;49.474;8.616;2023-05-01T04:15:22;2.17;;;1.97;;
7719;SDS011;3902;49.474;8.616;2023-05-01T04:17:48;2.47;;;2.17;;
7719;SDS011;3902;49.474;8.616;2023-05-01T04:20:13;2.47;;;2.27;;
7719;SDS011;3902;49.474;8.616;2023-05-01T04:22:40;3.00;;;2.23;;
7719;SDS011;3902;49.474;8.616;2023-05-01T04:25:06;3.00;;;2.37;;
7719;SDS011;3902;49.474;8.616;2023-05-01T04:27:32;2.40;;;2.20;;
7719;SDS011;3902;49.474;8.616;2023-05-01T04:29:58;2.63;;;2.40;;
7719;SDS011;3902;49.474;8.616;2023-05-01T04:32:23;2.80;;;2.50;;
7719;SDS011;3902;49.474;8.616;2023-05-01T04:34:49;2.73;;;2.40;;
7719;SDS011;3902;49.474;8.616;2023-05-01T04:37:14;2.07;;;1.83;;
7719;SDS011;3902;49.474;8.616;2023-05-01T04:39:42;2.27;;;2.07;;
7719;SDS011;3902;49.474;8.616;2023-05-01T04:42:08;2.77;;;2.30;;
7719;SDS011;3902;49.474;8.616;2023-05-01T04:44:34;2.50;;;2.30;;
7719;SDS011;3902;49.474;8.616;2023-05-01T04:47:01;3.07;;;2.17;;
7719;SDS011;3902;49.474;8.616;2023-05-01T04:49:27;6.27;;;2.53;;
7719;SDS011;3902;49.474;8.616;2023-05-01T04:51:53;2.50;;;2.30;;
7719;SDS011;3902;49.474;8.616;2023-05-01T04:54:18;2.37;;;2.17;;
7719;SDS011;3902;49.474;8.616;2023-05-01T04:56:44;2.37;;;2.17;;
7719;SDS011;3902;49.474;8.616;2023-05-01T04:59:09;2.30;;;2.10;;
7719;SDS011;3902;49.474;8.616;2023-05-01T05:01:35;2.53;;;2.33;;
7719;SDS011;3902;49.474;8.616;2023-05-01T05:04:00;2.60;;;2.30;;
7719;SDS011;3902;49.474;8.616;2023-05-01T05:06:26;3.03;;;2.73;;
7719;SDS011;3902;49.474;8.616;2023-05-01T05:08:51;3.60;;;2.50;;
7719;SDS011;3902;49.474;8.616;2023-05-01T05:11:17;2.30;;;2.10;;
7719;SDS011;3902;49.474;8.616;2023-05-01T05:13:43;2.30;;;2.20;;
7719;SDS011;3902;49.474;8.616;2023-05-01T05:16:09;5.80;;;2.40;;
7719;SDS011;3902;49.474;8.616;2023-05-01T05:18:34;3.03;;;2.80;;
7719;SDS011;3902;49.474;8.616;2023-05-01T05:21:04;2.50;;;2.30;;
7719;SDS011;3902;49.474;8.616;2023-05-01T05:23:30;2.33;;;2.00;;
7719;SDS011;3902;49.474;8.616;2023-05-01T05:25:55;3.00;;;2.50;;
7719;SDS011;3902;49.474;8.616;2023-05-01T05:28:25;2.77;;;2.30;;
7719;SDS011;3902;49.474;8.616;2023-05-01T05:30:52;2.30;;;2.10;;
7719;SDS011;3902;49.474;8.616;2023-05-01T05:33:17;2.93;;;2.50;;
7719;SDS011;3902;49.474;8.616;2023-05-01T05:35:43;2.73;;;2.53;;
7719;SDS011;3902;49.474;8.616;2023-05-01T05:38:08;2.30;;;2.10;;
7719;SDS011;3902;49.474;8.616;2023-05-01T05:40:34;3.37;;;2.60;;
7719;SDS011;3902;49.474;8.616;2023-05-01T05:43:00;2.57;;;2.37;;
7719;SDS011;3902;49.474;8.616;2023-05-01T05:45:25;3.90;;;2.57;;
7719;SDS011;3902;49.474;8.616;2023-05-01T05:47:51;2.70;;;2.50;;
7719;SDS011;3902;49.474;8.616;2023-05-01T05:50:17;2.73;;;2.53;;
7719;SDS011;3902;49.474;8.616;2023-05-01T05:52:42;3.00;;;2.53;;
7719;SDS011;3902;49.474;8.616;2023-05-01T05:55:08;3.40;;;2.40;;
7719;SDS011;3902;49.474;8.616;2023-05-01T05:57:33;2.80;;;2.57;;
7719;SDS011;3902;49.474;8.616;2023-05-01T06:00:01;2.73;;;2.53;;
7719;SDS011;3902;49.474;8.616;2023-05-01T06:02:29;2.57;;;2.37;;
7719;SDS011;3902;49.474;8.616;2023-05-01T06:04:55;3.00;;;2.50;;
7719;SDS011;3902;49.474;8.616;2023-05-01T06:07:21;2.77;;;2.47;;
7719;SDS011;3902;49.474;8.616;2023-05-01T06:09:47;2.40;;;2.20;;
7719;SDS011;3902;49.474;8.616;2023-05-01T06:12:13;2.57;;;2.37;;
7719;SDS011;3902;49.474;8.616;2023-05-01T06:14:39;2.60;;;2.40;;
7719;SDS011;3902;49.474;8.616;2023-05-01T06:17:04;2.40;;;2.20;;
7719;SDS011;3902;49.474;8.616;2023-05-01T06:19:31;2.90;;;2.63;;
7719;SDS011;3902;49.474;8.616;2023-05-01T06:21:56;2.60;;;2.40;;
7719;SDS011;3902;49.474;8.616;2023-05-01T06:24:22;3.00;;;2.37;;
7719;SDS011;3902;49.474;8.616;2023-05-01T06:26:48;2.90;;;2.53;;
7719;SDS011;3902;49.474;8.616;2023-05-01T06:29:13;3.53;;;2.70;;
7719;SDS011;3902;49.474;8.616;2023-05-01T06:31:39;2.60;;;2.40;;
7719;SDS011;3902;49.474;8.616;2023-05-01T06:34:04;2.90;;;2.70;;
7719;SDS011;3902;49.474;8.616;2023-05-01T06:36:30;3.10;;;2.80;;
7719;SDS011;3902;49.474;8.616;2023-05-01T06:38:55;3.00;;;2.80;;
7719;SDS011;3902;49.474;8.616;2023-05-01T06:41:21;3.07;;;2.70;;
7719;SDS011;3902;49.474;8.616;2023-05-01T06:43:47;2.83;;;2.60;;
7719;SDS011;3902;49.474;8.616;2023-05-01T06:46:12;4.60;;;2.50;;
7719;SDS011;3902;49.474;8.616;2023-05-01T06:48:38;2.87;;;2.60;;
7719;SDS011;3902;49.474;8.616;2023-05-01T06:51:03;3.10;;;2.80;;
7719;SDS011;3902;49.474;8.616;2023-05-01T06:53:29;2.80;;;2.60;;
7719;SDS011;3902;49.474;8.616;2023-05-01T06:55:54;2.50;;;2.30;;
7719;SDS011;3902;49.474;8.616;2023-05-01T06:58:20;2.07;;;1.93;;
7719;SDS011;3902;49.474;8.616;2023-05-01T07:00:45;2.63;;;2.43;;
7719;SDS011;3902;49.474;8.616;2023-05-01T07:03:11;2.50;;;2.30;;
7719;SDS011;3902;49.474;8.616;2023-05-01T07:05:37;3.13;;;2.90;;
7719;SDS011;3902;49.474;8.616;2023-05-01T07:08:04;3.10;;;2.87;;
7719;SDS011;3902;49.474;8.616;2023-05-01T07:10:30;3.00;;;2.67;;
7719;SDS011;3902;49.474;8.616;2023-05-01T07:12:56;3.10;;;2.63;;
7719;SDS011;3902;49.474;8.616;2023-05-01T07:15:21;3.43;;;3.10;;
7719;SDS011;3902;49.474;8.616;2023-05-01T07:17:47;3.13;;;2.37;;
7719;SDS011;3902;49.474;8.616;2023-05-01T07:20:14;3.60;;;2.60;;
7719;SDS011;3902;49.474;8.616;2023-05-01T07:22:41;2.67;;;2.47;;
7719;SDS011;3902;49.474;8.616;2023-05-01T07:25:07;5.50;;;2.50;;
7719;SDS011;3902;49.474;8.616;2023-05-01T07:27:32;3.10;;;2.67;;
7719;SDS011;3902;49.474;8.616;2023-05-01T07:30:00;2.77;;;2.27;;
7719;SDS011;3902;49.474;8.616;2023-05-01T07:32:27;3.20;;;2.60;;
7719;SDS011;3902;49.474;8.616;2023-05-01T07:34:53;2.40;;;2.20;;
7719;SDS011;3902;49.474;8.616;2023-05-01T07:37:18;2.53;;;2.33;;
7719;SDS011;3902;49.474;8.616;2023-05-01T07:39:44;2.73;;;2.50;;
7719;SDS011;3902;49.474;8.616;2023-05-01T07:42:09;3.00;;;2.47;;
7719;SDS011;3902;49.474;8.616;2023-05-01T07:44:35;3.17;;;2.87;;
7719;SDS011;3902;49.474;8.616;2023-05-01T07:47:04;3.23;;;2.93;;
7719;SDS011;3902;49.474;8.616;2023-05-01T07:49:36;3.07;;;2.77;;
7719;SDS011;3902;49.474;8.616;2023-05-01T07:52:05;2.93;;;2.63;;
7719;SDS011;3902;49.474;8.616;2023-05-01T07:54:33;3.73;;;3.33;;
7719;SDS011;3902;49.474;8.616;2023-05-01T07:56:59;3.03;;;2.73;;
7719;SDS011;3902;49.474;8.616;2023-05-01T07:59:26;3.00;;;2.70;;
7719;SDS011;3902;49.474;8.616;2023-05-01T08:01:52;4.07;;;3.10;;
7719;SDS011;3902;49.474;8.616;2023-05-01T08:04:17;3.40;;;3.10;;
7719;SDS011;3902;49.474;8.616;2023-05-01T08:06:43;3.63;;;3.33;;
7719;SDS011;3902;49.474;8.616;2023-05-01T08:09:08;3.23;;;2.90;;
7719;SDS011;3902;49.474;8.616;2023-05-01T08:11:34;3.93;;;3.33;;
7719;SDS011;3902;49.474;8.616;2023-05-01T08:14:00;3.07;;;2.83;;
7719;SDS011;3902;49.474;8.616;2023-05-01T08:16:25;3.20;;;2.90;;
7719;SDS011;3902;49.474;8.616;2023-05-01T08:18:51;3.47;;;3.17;;
7719;SDS011;3902;49.474;8.616;2023-05-01T08:21:17;3.50;;;3.20;;
7719;SDS011;3902;49.474;8.616;2023-05-01T08:23:42;5.50;;;3.37;;
7719;SDS011;3902;49.474;8.616;2023-05-01T08:26:08;3.80;;;3.30;;
7719;SDS011;3902;49.474;8.616;2023-05-01T08:28:33;4.10;;;3.63;;
7719;SDS011;3902;49.474;8.616;2023-05-01T08:30:59;3.63;;;3.33;;
7719;SDS011;3902;49.474;8.616;2023-05-01T08:33:25;3.73;;;3.43;;
7719;SDS011;3902;49.474;8.616;2023-05-01T08:35:51;5.03;;;3.57;;
7719;SDS011;3902;49.474;8.616;2023-05-01T08:38:16;3.83;;;3.50;;
7719;SDS011;3902;49.474;8.616;2023-05-01T08:40:43;3.33;;;3.13;;
7719;SDS011;3902;49.474;8.616;2023-05-01T08:43:17;3.67;;;3.37;;
7719;SDS011;3902;49.474;8.616;2023-05-01T08:45:43;3.20;;;3.00;;
7719;SDS011;3902;49.474;8.616;2023-05-01T08:48:11;3.57;;;3.27;;
7719;SDS011;3902;49.474;8.616;2023-05-01T08:50:39;3.97;;;3.40;;
7719;SDS011;3902;49.474;8.616;2023-05-01T08:53:09;4.37;;;3.53;;
7719;SDS011;3902;49.474;8.616;2023-05-01T08:55:36;3.83;;;3.53;;
7719;SDS011;3902;49.474;8.616;2023-05-01T08:58:03;3.80;;;3.50;;
7719;SDS011;3902;49.474;8.616;2023-05-01T09:00:31;7.80;;;3.90;;
7719;SDS011;3902;49.474;8.616;2023-05-01T09:02:59;3.60;;;3.30;;
7719;SDS011;3902;49.474;8.616;2023-05-01T09:05:26;3.77;;;3.33;;
7719;SDS011;3902;49.474;8.616;2023-05-01T09:07:56;3.40;;;3.10;;
7719;SDS011;3902;49.474;8.616;2023-05-01T09:10:23;5.10;;;3.33;;
7719;SDS011;3902;49.474;8.616;2023-05-01T09:12:54;3.87;;;3.47;;
7719;SDS011;3902;49.474;8.616;2023-05-01T09:15:22;4.10;;;3.70;;
7719;SDS011;3902;49.474;8.616;2023-05-01T09:17:53;3.20;;;2.97;;
7719;SDS011;3902;49.474;8.616;2023-05-01T09:20:19;3.17;;;2.87;;
7719;SDS011;3902;49.474;8.616;2023-05-01T09:22:44;3.30;;;3.10;;
7719;SDS011;3902;49.474;8.616;2023-05-01T09:25:11;3.03;;;2.83;;
7719;SDS011;3902;49.474;8.616;2023-05-01T09:27:36;3.33;;;3.00;;
7719;SDS011;3902;49.474;8.616;2023-05-01T09:30:02;3.97;;;3.17;;
7719;SDS011;3902;49.474;8.616;2023-05-01T09:32:30;3.33;;;3.03;;
7719;SDS011;3902;49.474;8.616;2023-05-01T09:35:12;3.20;;;2.83;;
7719;SDS011;3902;49.474;8.616;2023-05-01T09:37:38;3.63;;;3.30;;
7719;SDS011;3902;49.474;8.616;2023-05-01T09:40:08;3.37;;;3.07;;
7719;SDS011;3902;49.474;8.616;2023-05-01T09:42:38;3.60;;;3.30;;
7719;SDS011;3902;49.474;8.616;2023-05-01T09:45:10;4.03;;;3.53;;
7719;SDS011;3902;49.474;8.616;2023-05-01T09:47:41;3.47;;;3.17;;
7719;SDS011;3902;49.474;8.616;2023-05-01T09:50:08;3.77;;;3.47;;
7719;SDS011;3902;49.474;8.616;2023-05-01T09:52:34;3.33;;;3.00;;
7719;SDS011;3902;49.474;8.616;2023-05-01T09:55:16;4.17;;;3.77;;
7719;SDS011;3902;49.474;8.616;2023-05-01T09:57:43;4.13;;;3.83;;
7719;SDS011;3902;49.474;8.616;2023-05-01T10:00:10;5.07;;;4.00;;
7719;SDS011;3902;49.474;8.616;2023-05-01T10:02:40;3.77;;;3.47;;
7719;SDS011;3902;49.474;8.616;2023-05-01T10:05:08;4.00;;;3.70;;
7719;SDS011;3902;49.474;8.616;2023-05-01T10:07:34;4.10;;;3.70;;
7719;SDS011;3902;49.474;8.616;2023-05-01T10:10:19;4.00;;;3.60;;
7719;SDS011;3902;49.474;8.616;2023-05-01T10:12:46;3.57;;;3.27;;
7719;SDS011;3902;49.474;8.616;2023-05-01T10:15:13;4.50;;;3.80;;
7719;SDS011;3902;49.474;8.616;2023-05-01T10:17:39;4.37;;;3.97;;
7719;SDS011;3902;49.474;8.616;2023-05-01T10:20:07;4.07;;;3.73;;
7719;SDS011;3902;49.474;8.616;2023-05-01T10:22:35;3.90;;;3.50;;
7719;SDS011;3902;49.474;8.616;2023-05-01T10:25:00;3.90;;;3.60;;
7719;SDS011;3902;49.474;8.616;2023-05-01T10:27:28;4.10;;;3.43;;
7719;SDS011;3902;49.474;8.616;2023-05-01T10:29:54;3.60;;;3.30;;
7719;SDS011;3902;49.474;8.616;2023-05-01T10:32:21;3.73;;;3.43;;
7719;SDS011;3902;49.474;8.616;2023-05-01T10:34:48;3.27;;;3.07;;
7719;SDS011;3902;49.474;8.616;2023-05-01T10:37:19;4.27;;;3.87;;
7719;SDS011;3902;49.474;8.616;2023-05-01T10:39:48;3.80;;;3.47;;
7719;SDS011;3902;49.474;8.616;2023-05-01T10:42:14;4.03;;;3.60;;
7719;SDS011;3902;49.474;8.616;2023-05-01T10:44:40;3.47;;;3.17;;
7719;SDS011;3902;49.474;8.616;2023-05-01T10:50:04;3.87;;;3.57;;
7719;SDS011;3902;49.474;8.616;2023-05-01T10:55:46;3.53;;;3.23;;
7719;SDS011;3902;49.474;8.616;2023-05-01T10:58:13;4.13;;;3.27;;
7719;SDS011;3902;49.474;8.616;2023-05-01T11:04:30;3.63;;;3.33;;
7719;SDS011;3902;49.474;8.616;2023-05-01T11:12:07;3.90;;;2.80;;
7719;SDS011;3902;49.474;8.616;2023-05-01T11:20:04;3.83;;;3.43;;
7719;SDS011;3902;49.474;8.616;2023-05-01T11:22:54;3.80;;;3.50;;
7719;SDS011;3902;49.474;8.616;2023-05-01T11:25:24;2.90;;;2.70;;
7719;SDS011;3902;49.474;8.616;2023-05-01T11:28:03;3.37;;;2.77;;
7719;SDS011;3902;49.474;8.616;2023-05-01T11:30:39;3.73;;;3.43;;
7719;SDS011;3902;49.474;8.616;2023-05-01T11:33:05;3.80;;;3.40;;
7719;SDS011;3902;49.474;8.616;2023-05-01T11:35:32;4.13;;;3.07;;
7719;SDS011;3902;49.474;8.616;2023-05-01T11:37:57;3.30;;;3.00;;
7719;SDS011;3902;49.474;8.616;2023-05-01T11:40:24;5.40;;;2.97;;
7719;SDS011;3902;49.474;8.616;2023-05-01T11:42:56;4.10;;;3.47;;
7719;SDS011;3902;49.474;8.616;2023-05-01T11:45:25;3.70;;;3.20;;
7719;SDS011;3902;49.474;8.616;2023-05-01T11:47:50;3.13;;;2.87;;
7719;SDS011;3902;49.474;8.616;2023-05-01T11:50:16;4.50;;;4.10;;
7719;SDS011;3902;49.474;8.616;2023-05-01T11:55:08;3.70;;;3.40;;
7719;SDS011;3902;49.474;8.616;2023-05-01T11:57:44;12.43;;;3.40;;
7719;SDS011;3902;49.474;8.616;2023-05-01T12:00:16;3.43;;;3.13;;
7719;SDS011;3902;49.474;8.616;2023-05-01T12:02:54;3.83;;;3.00;;
7719;SDS011;3902;49.474;8.616;2023-05-01T12:05:21;3.40;;;3.10;;
7719;SDS011;3902;49.474;8.616;2023-05-01T12:07:47;3.10;;;2.90;;
7719;SDS011;3902;49.474;8.616;2023-05-01T12:10:13;3.27;;;2.97;;
7719;SDS011;3902;49.474;8.616;2023-05-01T12:12:39;3.53;;;3.23;;
7719;SDS011;3902;49.474;8.616;2023-05-01T12:15:05;3.43;;;3.13;;
7719;SDS011;3902;49.474;8.616;2023-05-01T12:17:31;3.60;;;3.30;;
7719;SDS011;3902;49.474;8.616;2023-05-01T12:19:57;3.57;;;3.27;;
7719;SDS011;3902;49.474;8.616;2023-05-01T12:22:23;4.77;;;3.37;;
7719;SDS011;3902;49.474;8.616;2023-05-01T12:24:49;3.40;;;3.10;;
7719;SDS011;3902;49.474;8.616;2023-05-01T12:27:18;3.43;;;3.13;;
7719;SDS011;3902;49.474;8.616;2023-05-01T12:29:44;3.50;;;3.20;;
7719;SDS011;3902;49.474;8.616;2023-05-01T12:32:12;3.10;;;2.90;;
7719;SDS011;3902;49.474;8.616;2023-05-01T12:34:39;3.13;;;2.93;;
7719;SDS011;3902;49.474;8.616;2023-05-01T12:37:05;3.93;;;3.63;;
7719;SDS011;3902;49.474;8.616;2023-05-01T12:39:37;5.70;;;4.00;;
7719;SDS011;3902;49.474;8.616;2023-05-01T12:42:03;5.90;;;3.70;;
7719;SDS011;3902;49.474;8.616;2023-05-01T12:44:37;3.50;;;3.20;;
7719;SDS011;3902;49.474;8.616;2023-05-01T12:47:03;3.20;;;2.90;;
7719;SDS011;3902;49.474;8.616;2023-05-01T12:49:31;2.90;;;2.63;;
7719;SDS011;3902;49.474;8.616;2023-05-01T12:51:58;3.10;;;2.90;;
7719;SDS011;3902;49.474;8.616;2023-05-01T12:54:28;4.73;;;3.03;;
7719;SDS011;3902;49.474;8.616;2023-05-01T12:57:08;3.53;;;3.23;;
7719;SDS011;3902;49.474;8.616;2023-05-01T12:59:36;4.93;;;3.47;;
7719;SDS011;3902;49.474;8.616;2023-05-01T13:02:05;3.80;;;3.23;;
7719;SDS011;3902;49.474;8.616;2023-05-01T13:04:31;3.33;;;3.03;;
7719;SDS011;3902;49.474;8.616;2023-05-01T13:06:57;5.17;;;3.00;;
7719;SDS011;3902;49.474;8.616;2023-05-01T13:09:24;2.80;;;2.60;;
7719;SDS011;3902;49.474;8.616;2023-05-01T13:11:57;3.37;;;3.07;;
7719;SDS011;3902;49.474;8.616;2023-05-01T13:14:23;3.73;;;3.43;;
7719;SDS011;3902;49.474;8.616;2023-05-01T13:16:50;3.87;;;3.47;;
7719;SDS011;3902;49.474;8.616;2023-05-01T13:19:25;3.23;;;2.93;;
7719;SDS011;3902;49.474;8.616;2023-05-01T13:21:52;3.80;;;3.40;;
7719;SDS011;3902;49.474;8.616;2023-05-01T13:24:22;3.27;;;3.00;;
7719;SDS011;3902;49.474;8.616;2023-05-01T13:27:04;3.63;;;3.33;;
7719;SDS011;3902;49.474;8.616;2023-05-01T13:29:30;4.03;;;3.60;;
7719;SDS011;3902;49.474;8.616;2023-05-01T13:31:56;3.13;;;2.90;;
7719;SDS011;3902;49.474;8.616;2023-05-01T13:34:28;3.63;;;3.20;;
7719;SDS011;3902;49.474;8.616;2023-05-01T13:36:55;4.00;;;3.37;;
7719;SDS011;3902;49.474;8.616;2023-05-01T13:39:21;4.27;;;2.93;;
7719;SDS011;3902;49.474;8.616;2023-05-01T13:41:47;3.23;;;3.00;;
7719;SDS011;3902;49.474;8.616;2023-05-01T13:44:13;3.27;;;3.03;;
7719;SDS011;3902;49.474;8.616;2023-05-01T13:46:41;5.47;;;2.93;;
7719;SDS011;3902;49.474;8.616;2023-05-01T13:49:06;3.50;;;3.10;;
7719;SDS011;3902;49.474;8.616;2023-05-01T13:51:32;3.63;;;2.70;;
7719;SDS011;3902;49.474;8.616;2023-05-01T13:54:02;3.30;;;3.00;;
7719;SDS011;3902;49.474;8.616;2023-05-01T13:56:28;3.43;;;3.13;;
7719;SDS011;3902;49.474;8.616;2023-05-01T13:58:58;2.73;;;2.53;;
7719;SDS011;3902;49.474;8.616;2023-05-01T14:01:23;3.00;;;2.70;;
7719;SDS011;3902;49.474;8.616;2023-05-01T14:03:49;2.90;;;2.50;;
7719;SDS011;3902;49.474;8.616;2023-05-01T14:06:17;2.93;;;2.73;;
7719;SDS011;3902;49.474;8.616;2023-05-01T14:08:45;2.93;;;2.73;;
7719;SDS011;3902;49.474;8.616;2023-05-01T14:11:12;3.03;;;2.30;;
7719;SDS011;3902;49.474;8.616;2023-05-01T14:13:44;2.93;;;2.63;;
7719;SDS011;3902;49.474;8.616;2023-05-01T14:16:24;2.80;;;2.60;;
7719;SDS011;3902;49.474;8.616;2023-05-01T14:18:52;4.10;;;2.40;;
7719;SDS011;3902;49.474;8.616;2023-05-01T14:21:19;3.67;;;2.30;;
7719;SDS011;3902;49.474;8.616;2023-05-01T14:23:47;2.60;;;2.40;;
7719;SDS011;3902;49.474;8.616;2023-05-01T14:26:16;2.77;;;2.50;;
7719;SDS011;3902;49.474;8.616;2023-05-01T14:28:44;3.07;;;2.80;;
7719;SDS011;3902;49.474;8.616;2023-05-01T14:31:13;2.90;;;2.70;;
7719;SDS011;3902;49.474;8.616;2023-05-01T14:33:52;2.80;;;2.20;;
7719;SDS011;3902;49.474;8.616;2023-05-01T14:36:20;2.67;;;2.47;;
7719;SDS011;3902;49.474;8.616;2023-05-01T14:38:45;2.20;;;2.00;;
7719;SDS011;3902;49.474;8.616;2023-05-01T14:41:13;2.93;;;2.63;;
7719;SDS011;3902;49.474;8.616;2023-05-01T14:43:41;3.03;;;2.73;;
7719;SDS011;3902;49.474;8.616;2023-05-01T14:46:10;2.50;;;2.20;;
7719;SDS011;3902;49.474;8.616;2023-05-01T14:48:36;2.00;;;1.90;;
7719;SDS011;3902;49.474;8.616;2023-05-01T14:51:08;2.60;;;2.20;;
7719;SDS011;3902;49.474;8.616;2023-05-01T14:53:42;2.47;;;2.27;;
7719;SDS011;3902;49.474;8.616;2023-05-01T14:56:08;2.60;;;2.40;;
7719;SDS011;3902;49.474;8.616;2023-05-01T14:58:34;2.57;;;2.20;;
7719;SDS011;3902;49.474;8.616;2023-05-01T15:01:00;2.70;;;2.50;;
7719;SDS011;3902;49.474;8.616;2023-05-01T15:03:26;3.23;;;2.40;;
7719;SDS011;3902;49.474;8.616;2023-05-01T15:05:52;6.30;;;2.70;;
7719;SDS011;3902;49.474;8.616;2023-05-01T15:08:18;2.63;;;2.43;;
7719;SDS011;3902;49.474;8.616;2023-05-01T15:10:43;2.53;;;2.33;;
7719;SDS011;3902;49.474;8.616;2023-05-01T15:13:09;2.17;;;1.97;;
7719;SDS011;3902;49.474;8.616;2023-05-01T15:15:35;2.63;;;2.43;;
7719;SDS011;3902;49.474;8.616;2023-05-01T15:18:00;2.70;;;2.50;;
7719;SDS011;3902;49.474;8.616;2023-05-01T15:20:27;2.30;;;2.10;;
7719;SDS011;3902;49.474;8.616;2023-05-01T15:22:53;7.20;;;2.57;;
7719;SDS011;3902;49.474;8.616;2023-05-01T15:25:19;2.60;;;2.40;;
7719;SDS011;3902;49.474;8.616;2023-05-01T15:27:44;2.30;;;2.13;;
7719;SDS011;3902;49.474;8.616;2023-05-01T15:30:10;4.10;;;2.30;;
7719;SDS011;3902;49.474;8.616;2023-05-01T15:32:36;2.30;;;2.10;;
7719;SDS011;3902;49.474;8.616;2023-05-01T15:35:02;2.97;;;2.50;;
7719;SDS011;3902;49.474;8.616;2023-05-01T15:37:29;2.20;;;2.10;;
7719;SDS011;3902;49.474;8.616;2023-05-01T15:39:55;2.47;;;2.27;;
7719;SDS011;3902;49.474;8.616;2023-05-01T15:42:21;2.63;;;2.43;;
7719;SDS011;3902;49.474;8.616;2023-05-01T15:44:47;2.30;;;2.10;;
7719;SDS011;3902;49.474;8.616;2023-05-01T15:47:13;2.47;;;2.27;;